sensor_id;sensor_type;location;lat;lon;timestamp;temperature;humidity
42979;DHT22;28616;44.746;19.678;2022-08-19T02:41:39;24.20;68.60
42979;DHT22;28616;44.746;19.678;2022-08-19T02:44:05;24.00;69.20
42979;DHT22;28616;44.746;19.678;2022-08-19T02:46:32;23.90;70.70
42979;DHT22;28616;44.746;19.678;2022-08-19T02:49:03;23.90;73.00
42979;DHT22;28616;44.746;19.678;2022-08-19T02:51:37;23.80;75.50
42979;DHT22;28616;44.746;19.678;2022-08-19T02:54:06;23.70;78.70
42979;DHT22;28616;44.746;19.678;2022-08-19T02:56:35;23.70;79.60
42979;DHT22;28616;44.746;19.678;2022-08-19T02:59:01;23.60;80.70
42979;DHT22;28616;44.746;19.678;2022-08-19T03:01:32;23.60;83.30
42979;DHT22;28616;44.746;19.678;2022-08-19T03:04:01;23.60;85.10
42979;DHT22;28616;44.746;19.678;2022-08-19T03:06:28;23.60;84.40
42979;DHT22;28616;44.746;19.678;2022-08-19T03:08:55;23.50;84.10
42979;DHT22;28616;44.746;19.678;2022-08-19T03:11:25;23.50;85.80
42979;DHT22;28616;44.746;19.678;2022-08-19T03:13:52;23.60;88.80
42979;DHT22;28616;44.746;19.678;2022-08-19T03:16:20;23.60;87.00
42979;DHT22;28616;44.746;19.678;2022-08-19T03:18:46;23.60;87.20
42979;DHT22;28616;44.746;19.678;2022-08-19T03:21:17;23.60;89.20
42979;DHT22;28616;44.746;19.678;2022-08-19T03:23:43;23.60;88.30
42979;DHT22;28616;44.746;19.678;2022-08-19T03:26:09;23.60;89.50
42979;DHT22;28616;44.746;19.678;2022-08-19T03:28:35;23.60;91.30
42979;DHT22;28616;44.746;19.678;2022-08-19T03:31:05;23.60;92.90
42979;DHT22;28616;44.746;19.678;2022-08-19T03:33:33;23.60;97.30
42979;DHT22;28616;44.746;19.678;2022-08-19T03:38:33;23.60;99.50
42979;DHT22;28616;44.746;19.678;2022-08-19T03:41:03;23.60;99.90
42979;DHT22;28616;44.746;19.678;2022-08-19T03:43:28;23.60;99.90
42979;DHT22;28616;44.746;19.678;2022-08-19T03:46:14;23.60;99.90
42979;DHT22;28616;44.746;19.678;2022-08-19T03:48:41;23.60;99.90
42979;DHT22;28616;44.746;19.678;2022-08-19T03:51:15;23.60;99.90
42979;DHT22;28616;44.746;19.678;2022-08-19T03:53:41;23.60;99.90
42979;DHT22;28616;44.746;19.678;2022-08-19T03:56:09;23.60;99.90
42979;DHT22;28616;44.746;19.678;2022-08-19T03:58:35;23.60;99.90
42979;DHT22;28616;44.746;19.678;2022-08-19T04:01:07;23.60;99.90
42979;DHT22;28616;44.746;19.678;2022-08-19T04:03:33;23.60;99.90
42979;DHT22;28616;44.746;19.678;2022-08-19T04:06:19;23.60;99.90
42979;DHT22;28616;44.746;19.678;2022-08-19T04:08:48;23.60;99.90
42979;DHT22;28616;44.746;19.678;2022-08-19T04:11:17;23.60;99.90
42979;DHT22;28616;44.746;19.678;2022-08-19T04:13:43;23.60;99.90
42979;DHT22;28616;44.746;19.678;2022-08-19T04:16:10;23.70;99.90
42979;DHT22;28616;44.746;19.678;2022-08-19T04:18:38;23.70;99.90
42979;DHT22;28616;44.746;19.678;2022-08-19T04:21:04;23.70;99.90
42979;DHT22;28616;44.746;19.678;2022-08-19T04:23:31;23.70;99.90
42979;DHT22;28616;44.746;19.678;2022-08-19T04:25:57;23.70;99.90
42979;DHT22;28616;44.746;19.678;2022-08-19T04:28:23;23.70;99.90
42979;DHT22;28616;44.746;19.678;2022-08-19T04:30:51;23.80;99.90
42979;DHT22;28616;44.746;19.678;2022-08-19T04:33:21;23.80;99.90
42979;DHT22;28616;44.746;19.678;2022-08-19T04:35:49;23.90;99.90
42979;DHT22;28616;44.746;19.678;2022-08-19T04:38:17;23.90;99.90
42979;DHT22;28616;44.746;19.678;2022-08-19T04:40:45;23.90;99.90
42979;DHT22;28616;44.746;19.678;2022-08-19T04:43:30;23.90;99.90
42979;DHT22;28616;44.746;19.678;2022-08-19T04:45:57;23.80;99.90
42979;DHT22;28616;44.746;19.678;2022-08-19T04:48:23;23.90;99.90
42979;DHT22;28616;44.746;19.678;2022-08-19T04:50:54;23.90;99.90
42979;DHT22;28616;44.746;19.678;2022-08-19T04:53:33;23.90;99.90
42979;DHT22;28616;44.746;19.678;2022-08-19T04:56:03;23.90;99.90
42979;DHT22;28616;44.746;19.678;2022-08-19T04:58:29;24.00;99.90
42979;DHT22;28616;44.746;19.678;2022-08-19T05:00:55;24.00;99.90
42979;DHT22;28616;44.746;19.678;2022-08-19T05:03:21;24.10;99.90
42979;DHT22;28616;44.746;19.678;2022-08-19T05:05:48;24.10;99.90
42979;DHT22;28616;44.746;19.678;2022-08-19T05:08:20;24.20;99.90
42979;DHT22;28616;44.746;19.678;2022-08-19T17:03:08;24.50;99.90
42979;DHT22;28616;44.746;19.678;2022-08-19T17:05:44;24.50;99.90
42979;DHT22;28616;44.746;19.678;2022-08-19T17:08:10;24.30;99.90
42979;DHT22;28616;44.746;19.678;2022-08-19T17:10:36;24.30;99.90
42979;DHT22;28616;44.746;19.678;2022-08-19T17:13:03;24.20;99.90
42979;DHT22;28616;44.746;19.678;2022-08-19T17:15:29;24.20;99.90
42979;DHT22;28616;44.746;19.678;2022-08-19T17:18:04;24.20;99.90
42979;DHT22;28616;44.746;19.678;2022-08-19T17:20:31;24.20;99.90
42979;DHT22;28616;44.746;19.678;2022-08-19T17:22:57;24.30;99.90
42979;DHT22;28616;44.746;19.678;2022-08-19T17:25:25;24.30;99.90
42979;DHT22;28616;44.746;19.678;2022-08-19T17:27:52;24.30;99.90
42979;DHT22;28616;44.746;19.678;2022-08-19T17:30:18;24.40;99.90
42979;DHT22;28616;44.746;19.678;2022-08-19T17:32:44;24.30;99.90
42979;DHT22;28616;44.746;19.678;2022-08-19T17:35:10;24.30;99.90
42979;DHT22;28616;44.746;19.678;2022-08-19T17:37:36;24.40;99.90
42979;DHT22;28616;44.746;19.678;2022-08-19T17:40:06;24.40;99.90
42979;DHT22;28616;44.746;19.678;2022-08-19T17:42:33;24.50;99.90
42979;DHT22;28616;44.746;19.678;2022-08-19T17:45:01;24.50;99.90
42979;DHT22;28616;44.746;19.678;2022-08-19T17:47:27;24.50;99.90
42979;DHT22;28616;44.746;19.678;2022-08-19T17:49:53;24.50;99.90
42979;DHT22;28616;44.746;19.678;2022-08-19T17:52:19;24.40;99.90
42979;DHT22;28616;44.746;19.678;2022-08-19T17:54:46;24.40;99.90
42979;DHT22;28616;44.746;19.678;2022-08-19T17:57:12;24.50;99.90
42979;DHT22;28616;44.746;19.678;2022-08-19T17:59:38;24.50;99.90
42979;DHT22;28616;44.746;19.678;2022-08-19T18:02:08;24.40;99.90
42979;DHT22;28616;44.746;19.678;2022-08-19T18:04:35;24.40;99.90
42979;DHT22;28616;44.746;19.678;2022-08-19T18:07:01;24.20;99.90
42979;DHT22;28616;44.746;19.678;2022-08-19T18:09:31;24.20;99.90
42979;DHT22;28616;44.746;19.678;2022-08-19T18:11:59;24.20;99.90
42979;DHT22;28616;44.746;19.678;2022-08-19T18:14:29;24.10;99.90
42979;DHT22;28616;44.746;19.678;2022-08-19T18:16:56;24.10;99.90
42979;DHT22;28616;44.746;19.678;2022-08-19T18:19:25;24.20;99.90
42979;DHT22;28616;44.746;19.678;2022-08-19T18:21:52;24.10;99.90
42979;DHT22;28616;44.746;19.678;2022-08-19T18:24:21;24.10;99.90
42979;DHT22;28616;44.746;19.678;2022-08-19T18:26:46;24.10;99.90
42979;DHT22;28616;44.746;19.678;2022-08-19T18:29:13;24.10;99.90
42979;DHT22;28616;44.746;19.678;2022-08-19T18:31:39;24.10;99.90
42979;DHT22;28616;44.746;19.678;2022-08-19T18:34:05;24.10;99.90
42979;DHT22;28616;44.746;19.678;2022-08-19T18:36:35;24.20;99.90
42979;DHT22;28616;44.746;19.678;2022-08-19T18:39:00;24.10;99.90
42979;DHT22;28616;44.746;19.678;2022-08-19T18:41:45;24.10;99.90
42979;DHT22;28616;44.746;19.678;2022-08-19T18:44:29;24.20;99.90
42979;DHT22;28616;44.746;19.678;2022-08-19T18:47:13;24.10;99.90
42979;DHT22;28616;44.746;19.678;2022-08-19T18:49:57;24.20;99.90
42979;DHT22;28616;44.746;19.678;2022-08-19T18:52:27;24.30;99.90
42979;DHT22;28616;44.746;19.678;2022-08-19T18:54:53;24.30;99.90
42979;DHT22;28616;44.746;19.678;2022-08-19T18:57:19;24.30;99.90
42979;DHT22;28616;44.746;19.678;2022-08-19T19:02:16;24.00;99.90
42979;DHT22;28616;44.746;19.678;2022-08-19T19:04:44;24.10;99.90
42979;DHT22;28616;44.746;19.678;2022-08-19T19:07:11;24.10;99.90
42979;DHT22;28616;44.746;19.678;2022-08-19T19:09:40;24.20;99.90
42979;DHT22;28616;44.746;19.678;2022-08-19T19:12:09;24.10;99.90
42979;DHT22;28616;44.746;19.678;2022-08-19T19:14:37;24.10;99.90
42979;DHT22;28616;44.746;19.678;2022-08-19T19:17:06;24.20;99.90
42979;DHT22;28616;44.746;19.678;2022-08-19T19:19:33;24.30;99.90
42979;DHT22;28616;44.746;19.678;2022-08-19T19:22:01;24.30;99.90
42979;DHT22;28616;44.746;19.678;2022-08-19T19:24:30;24.40;99.90
42979;DHT22;28616;44.746;19.678;2022-08-19T19:26:59;24.40;99.90
42979;DHT22;28616;44.746;19.678;2022-08-19T19:29:26;24.50;99.90
42979;DHT22;28616;44.746;19.678;2022-08-19T19:31:52;24.50;99.90
42979;DHT22;28616;44.746;19.678;2022-08-19T19:34:21;24.50;99.90
42979;DHT22;28616;44.746;19.678;2022-08-19T19:36:49;24.50;99.90
42979;DHT22;28616;44.746;19.678;2022-08-19T19:39:15;24.50;99.90
42979;DHT22;28616;44.746;19.678;2022-08-19T19:41:41;24.40;99.90
42979;DHT22;28616;44.746;19.678;2022-08-19T19:44:07;24.40;99.90
42979;DHT22;28616;44.746;19.678;2022-08-19T19:46:34;24.40;99.90
42979;DHT22;28616;44.746;19.678;2022-08-19T19:49:01;24.50;99.90
42979;DHT22;28616;44.746;19.678;2022-08-19T19:51:27;24.50;99.90
42979;DHT22;28616;44.746;19.678;2022-08-19T19:53:54;24.50;99.90
42979;DHT22;28616;44.746;19.678;2022-08-19T19:56:21;24.60;99.90
42979;DHT22;28616;44.746;19.678;2022-08-19T19:58:47;24.50;99.90
42979;DHT22;28616;44.746;19.678;2022-08-19T20:01:16;24.50;99.90
42979;DHT22;28616;44.746;19.678;2022-08-19T20:03:43;24.60;99.90
42979;DHT22;28616;44.746;19.678;2022-08-19T20:06:11;24.60;99.90
42979;DHT22;28616;44.746;19.678;2022-08-19T20:08:37;24.60;99.90
42979;DHT22;28616;44.746;19.678;2022-08-19T20:14:18;24.50;99.90
42979;DHT22;28616;44.746;19.678;2022-08-19T20:16:45;24.50;99.90
42979;DHT22;28616;44.746;19.678;2022-08-19T20:19:13;24.50;99.90
42979;DHT22;28616;44.746;19.678;2022-08-19T20:21:40;24.40;99.90
42979;DHT22;28616;44.746;19.678;2022-08-19T20:24:13;24.50;99.90
42979;DHT22;28616;44.746;19.678;2022-08-19T20:26:41;24.40;99.90
42979;DHT22;28616;44.746;19.678;2022-08-19T20:29:07;24.50;99.90
42979;DHT22;28616;44.746;19.678;2022-08-19T20:31:34;24.50;99.90
42979;DHT22;28616;44.746;19.678;2022-08-19T20:34:00;24.50;99.90
42979;DHT22;28616;44.746;19.678;2022-08-19T20:36:26;24.50;99.90
42979;DHT22;28616;44.746;19.678;2022-08-19T20:38:52;24.60;99.90
42979;DHT22;28616;44.746;19.678;2022-08-19T20:41:18;24.60;99.90
42979;DHT22;28616;44.746;19.678;2022-08-19T20:43:46;24.60;99.90
42979;DHT22;28616;44.746;19.678;2022-08-19T20:46:12;24.60;99.90
42979;DHT22;28616;44.746;19.678;2022-08-19T20:48:40;24.60;99.90
42979;DHT22;28616;44.746;19.678;2022-08-19T20:51:08;24.60;99.90
42979;DHT22;28616;44.746;19.678;2022-08-19T20:53:36;24.60;99.90
42979;DHT22;28616;44.746;19.678;2022-08-19T20:56:02;24.50;99.90
42979;DHT22;28616;44.746;19.678;2022-08-19T20:58:29;24.50;99.90
42979;DHT22;28616;44.746;19.678;2022-08-19T21:00:57;24.50;99.90
42979;DHT22;28616;44.746;19.678;2022-08-19T21:03:26;24.30;99.90
42979;DHT22;28616;44.746;19.678;2022-08-19T21:05:53;24.30;99.90
42979;DHT22;28616;44.746;19.678;2022-08-19T21:08:19;24.30;99.90
42979;DHT22;28616;44.746;19.678;2022-08-19T21:10:47;24.30;99.90
42979;DHT22;28616;44.746;19.678;2022-08-19T21:13:13;24.30;99.90
42979;DHT22;28616;44.746;19.678;2022-08-19T21:15:40;24.20;99.90
42979;DHT22;28616;44.746;19.678;2022-08-19T21:18:11;24.20;99.90
42979;DHT22;28616;44.746;19.678;2022-08-19T21:20:38;24.20;99.90
42979;DHT22;28616;44.746;19.678;2022-08-19T21:23:09;24.20;99.90
42979;DHT22;28616;44.746;19.678;2022-08-19T21:25:35;24.20;99.90
42979;DHT22;28616;44.746;19.678;2022-08-19T21:28:02;24.20;99.90
42979;DHT22;28616;44.746;19.678;2022-08-19T21:30:28;24.10;99.90
42979;DHT22;28616;44.746;19.678;2022-08-19T21:32:54;24.10;99.90
42979;DHT22;28616;44.746;19.678;2022-08-19T21:35:21;24.10;99.90
42979;DHT22;28616;44.746;19.678;2022-08-19T21:37:48;24.20;99.90
42979;DHT22;28616;44.746;19.678;2022-08-19T21:40:14;24.20;99.90
42979;DHT22;28616;44.746;19.678;2022-08-19T21:42:41;24.20;99.90
42979;DHT22;28616;44.746;19.678;2022-08-19T21:45:08;24.20;99.90
42979;DHT22;28616;44.746;19.678;2022-08-19T21:47:35;24.20;99.90
42979;DHT22;28616;44.746;19.678;2022-08-19T21:50:02;24.20;99.90
42979;DHT22;28616;44.746;19.678;2022-08-19T21:52:28;24.20;99.90
42979;DHT22;28616;44.746;19.678;2022-08-19T21:54:54;24.20;99.90
42979;DHT22;28616;44.746;19.678;2022-08-19T21:57:21;24.20;99.90
42979;DHT22;28616;44.746;19.678;2022-08-19T21:59:47;24.20;99.90
42979;DHT22;28616;44.746;19.678;2022-08-19T22:02:13;24.20;99.90
42979;DHT22;28616;44.746;19.678;2022-08-19T22:04:41;24.20;99.90
42979;DHT22;28616;44.746;19.678;2022-08-19T22:07:08;24.20;99.90
42979;DHT22;28616;44.746;19.678;2022-08-19T22:09:36;24.20;99.90
42979;DHT22;28616;44.746;19.678;2022-08-19T22:12:07;24.20;99.90
42979;DHT22;28616;44.746;19.678;2022-08-19T22:14:35;24.20;99.90
42979;DHT22;28616;44.746;19.678;2022-08-19T22:17:01;24.30;99.90
42979;DHT22;28616;44.746;19.678;2022-08-19T22:19:27;24.30;99.90
42979;DHT22;28616;44.746;19.678;2022-08-19T22:21:56;24.30;99.90
42979;DHT22;28616;44.746;19.678;2022-08-19T22:24:23;24.40;99.90
42979;DHT22;28616;44.746;19.678;2022-08-19T22:26:49;24.40;99.90
42979;DHT22;28616;44.746;19.678;2022-08-19T22:29:16;24.40;99.90
42979;DHT22;28616;44.746;19.678;2022-08-19T22:31:42;24.50;99.90
42979;DHT22;28616;44.746;19.678;2022-08-19T22:34:08;24.40;99.90
42979;DHT22;28616;44.746;19.678;2022-08-19T22:36:35;24.40;99.90
42979;DHT22;28616;44.746;19.678;2022-08-19T22:39:01;24.30;99.90
42979;DHT22;28616;44.746;19.678;2022-08-19T22:41:28;24.30;99.90
42979;DHT22;28616;44.746;19.678;2022-08-19T22:43:53;24.20;99.90
42979;DHT22;28616;44.746;19.678;2022-08-19T22:46:20;24.10;99.90
42979;DHT22;28616;44.746;19.678;2022-08-19T22:48:46;24.00;99.90
42979;DHT22;28616;44.746;19.678;2022-08-19T22:51:13;23.90;99.90
42979;DHT22;28616;44.746;19.678;2022-08-19T22:53:58;23.80;99.90
42979;DHT22;28616;44.746;19.678;2022-08-19T22:56:24;23.70;99.90
42979;DHT22;28616;44.746;19.678;2022-08-19T22:58:50;23.80;99.90
42979;DHT22;28616;44.746;19.678;2022-08-19T23:01:18;23.80;99.90
42979;DHT22;28616;44.746;19.678;2022-08-19T23:03:44;23.80;99.90
42979;DHT22;28616;44.746;19.678;2022-08-19T23:06:11;23.70;99.90
42979;DHT22;28616;44.746;19.678;2022-08-19T23:08:42;23.70;99.90
42979;DHT22;28616;44.746;19.678;2022-08-19T23:11:08;23.70;99.90
42979;DHT22;28616;44.746;19.678;2022-08-19T23:13:37;23.70;99.90
42979;DHT22;28616;44.746;19.678;2022-08-19T23:16:04;23.70;99.90
42979;DHT22;28616;44.746;19.678;2022-08-19T23:18:30;23.60;99.90
42979;DHT22;28616;44.746;19.678;2022-08-19T23:20:58;23.60;99.90
42979;DHT22;28616;44.746;19.678;2022-08-19T23:23:25;23.50;99.90
42979;DHT22;28616;44.746;19.678;2022-08-19T23:25:52;23.40;99.90
42979;DHT22;28616;44.746;19.678;2022-08-19T23:28:19;23.40;99.90
42979;DHT22;28616;44.746;19.678;2022-08-19T23:31:05;23.40;99.90
42979;DHT22;28616;44.746;19.678;2022-08-19T23:33:40;23.40;99.90
42979;DHT22;28616;44.746;19.678;2022-08-19T23:36:10;23.40;99.90
42979;DHT22;28616;44.746;19.678;2022-08-19T23:38:38;23.40;99.90
42979;DHT22;28616;44.746;19.678;2022-08-19T23:41:07;23.40;99.90
42979;DHT22;28616;44.746;19.678;2022-08-19T23:43:34;23.40;99.90
42979;DHT22;28616;44.746;19.678;2022-08-19T23:46:02;23.40;99.90
42979;DHT22;28616;44.746;19.678;2022-08-19T23:48:31;23.40;99.90
42979;DHT22;28616;44.746;19.678;2022-08-19T23:50:58;23.40;99.90
42979;DHT22;28616;44.746;19.678;2022-08-19T23:53:25;23.40;99.90
42979;DHT22;28616;44.746;19.678;2022-08-19T23:55:51;23.40;99.90
42979;DHT22;28616;44.746;19.678;2022-08-19T23:58:17;23.40;99.90
